Cozumel International Airport
MMCZ : now visible

Airfield :











YOU CAN JOIN US ON...

 
LOGIN :

Register | Disclaimer

   EN    FR    IT 

 









Legend :    VFR   Marginal VFR   IFR   Intensive IFR   Very Intensive IFR
Visi :
Ceiling :
>= 8 km
>= 3000ft
5 to 8 km
1000 to 3000 ft
1500m to 5 km
500 to 1000 ft
800 to 1500m
200 to 500 ft
< 800m
< 200 ft
Symbols :   Thunderstorms  Fog  Heavy snow  Heavy precipitations  Wind > 20 kt






- Airport Elevation : 15 ft
- IATA code : CZM


MMCZ - Cozumel International

CURRENT METAR :
  • 262345Z 14008KT 7SM FEW015 BKN280 29/26 A2980 RMK SLP096 52001 906 8/503 DSNT CB NW

EXPIRED METARs :
  • 262244Z 14006KT 8SM SCT015TCU 30/26 A2980 RMK 8/200 SC
  • 262144Z 14010KT 8SM SCT015TCU 31/25 A2979 RMK 8/200 SC

TAF TAF MMCZ
Valid from the 27 at 00:00 until the 28 at 06:00 UTC


262232Z 2700/2806 14010KT P6SM SCT015
BECMG 2702/2703 12006KT SCT015 BKN250
FM271000 12006KT 6SM HZ BKN015 BKN250
BECMG 2719/2720 12015KT
FM280200 12008KT P6SM SCT020 BKN250
MMFR FIR / North America



MET'MAP, your aeronautical weather chart ! - Copyright ORBIFLY December 2007 - Disclaimer

ORBIFLY MET'MAP TEAM :

Programming & Development : Alexandra Zaïnal
Concept & original design : Baudouin d'Aumeries
Assistance for programming : Marc-Olivier Méhu
Technical & hardware support : Manuel Goepfert

Contact : metmap@orbifly.com




SOURCES & CREDITS :

   NOAA       Earth
Advisory